createdAt,value
2022-08-02T00:00:34.952Z,5.17
2022-08-02T00:03:01.666Z,4.00
2022-08-02T00:05:29.337Z,4.00
2022-08-02T00:07:56.093Z,4.27
2022-08-02T00:10:22.881Z,4.30
2022-08-02T00:12:49.628Z,3.10
2022-08-02T00:15:16.720Z,3.90
2022-08-02T00:17:44.565Z,3.57
2022-08-02T00:20:14.118Z,4.50
2022-08-02T00:22:40.959Z,3.43
2022-08-02T00:25:08.935Z,3.13
2022-08-02T00:27:35.921Z,3.90
2022-08-02T00:30:03.084Z,3.93
2022-08-02T00:32:32.954Z,3.37
2022-08-02T00:34:59.750Z,3.37
2022-08-02T00:37:26.841Z,3.83
2022-08-02T00:39:53.625Z,3.93
2022-08-02T00:42:20.365Z,4.27
2022-08-02T00:44:57.513Z,3.97
2022-08-02T00:47:24.602Z,4.63
2022-08-02T00:49:51.361Z,3.97
2022-08-02T00:52:18.579Z,4.70
2022-08-02T00:54:46.040Z,4.30
2022-08-02T00:57:12.740Z,3.37
2022-08-02T00:59:39.941Z,3.90
2022-08-02T01:02:06.691Z,4.27
2022-08-02T01:04:33.973Z,3.83
2022-08-02T01:07:11.866Z,4.00
2022-08-02T01:09:42.078Z,4.27
2022-08-02T01:12:09.847Z,4.57
2022-08-02T01:14:37.492Z,4.30
2022-08-02T01:17:15.998Z,3.40
2022-08-02T01:20:03.134Z,4.40
2022-08-02T01:23:03.308Z,4.33
2022-08-02T01:26:05.619Z,3.90
2022-08-02T01:28:54.041Z,3.93
2022-08-02T01:31:32.674Z,4.53
2022-08-02T01:34:18.838Z,3.83
2022-08-02T01:36:52.070Z,5.00
2022-08-02T01:39:27.391Z,4.63
2022-08-02T01:42:02.022Z,3.10
2022-08-02T01:44:35.803Z,3.90
2022-08-02T01:47:09.295Z,4.37
2022-08-02T01:49:38.446Z,4.97
2022-08-02T01:52:22.438Z,4.77
2022-08-02T01:55:03.504Z,3.97
2022-08-02T01:57:51.068Z,4.50
2022-08-02T02:00:21.457Z,3.50
2022-08-02T02:02:50.349Z,5.20
2022-08-02T02:05:20.562Z,6.77
2022-08-02T02:07:57.944Z,3.77
2022-08-02T02:10:34.476Z,4.10
2022-08-02T02:13:07.944Z,3.77
2022-08-02T02:15:36.430Z,4.00
2022-08-02T02:18:12.598Z,3.93
2022-08-02T02:20:41.900Z,3.73
2022-08-02T02:23:09.145Z,4.50
2022-08-02T02:25:41.743Z,4.40
2022-08-02T02:28:30.775Z,8.53
2022-08-02T02:31:05.230Z,7.90
2022-08-02T02:33:37.748Z,12.97
2022-08-02T02:36:05.830Z,13.37
2022-08-02T02:38:34.576Z,14.33
2022-08-02T02:41:05.388Z,19.00
2022-08-02T02:43:34.680Z,24.50
2022-08-02T02:46:05.429Z,15.60
2022-08-02T02:48:33.838Z,17.43
2022-08-02T02:51:03.905Z,15.07
2022-08-02T02:54:32.188Z,17.90
2022-08-02T02:56:21.360Z,13.60
2022-08-02T02:58:48.495Z,13.10
2022-08-02T03:01:53.211Z,14.17
2022-08-02T03:04:16.021Z,12.37
2022-08-02T03:06:43.341Z,11.13
2022-08-02T03:09:10.393Z,10.27
2022-08-02T03:11:40.091Z,8.30
2022-08-02T03:14:12.813Z,9.27
2022-08-02T03:16:48.574Z,12.37
2022-08-02T03:19:15.616Z,9.40
2022-08-02T03:21:43.624Z,10.00
2022-08-02T03:24:11.422Z,10.23
2022-08-02T03:26:39.261Z,11.00
2022-08-02T03:29:10.056Z,9.57
2022-08-02T03:31:41.707Z,10.17
2022-08-02T03:34:08.677Z,10.23
2022-08-02T03:36:36.473Z,8.50
2022-08-02T03:39:04.618Z,10.70
2022-08-02T03:41:32.111Z,10.10
2022-08-02T03:43:59.778Z,10.50
2022-08-02T03:46:27.335Z,11.17
2022-08-02T03:48:56.292Z,11.43
2022-08-02T03:51:24.053Z,9.70
2022-08-02T03:53:52.349Z,12.10
2022-08-02T03:56:20.083Z,11.00
2022-08-02T03:58:49.243Z,10.67
2022-08-02T04:01:16.608Z,9.93
2022-08-02T04:03:44.272Z,11.07
2022-08-02T04:06:11.138Z,12.23
2022-08-02T04:08:38.930Z,15.97
2022-08-02T04:11:25.917Z,11.80
2022-08-02T04:13:55.330Z,10.17
2022-08-02T04:16:36.867Z,10.50
2022-08-02T04:19:07.572Z,11.17
2022-08-02T04:21:50.107Z,9.10
2022-08-02T04:24:24.699Z,10.50
2022-08-02T04:26:57.633Z,9.57
2022-08-02T04:29:27.632Z,8.13
2022-08-02T04:31:55.058Z,6.00
2022-08-02T04:34:22.269Z,6.20
2022-08-02T04:36:50.714Z,7.40
2022-08-02T04:39:17.481Z,9.13
2022-08-02T04:41:46.923Z,8.67
2022-08-02T04:44:14.823Z,6.27
2022-08-02T04:46:44.166Z,6.37
2022-08-02T04:49:11.669Z,7.57
2022-08-02T04:51:40.613Z,8.20
2022-08-02T04:54:11.430Z,5.93
2022-08-02T04:56:40.034Z,7.77
2022-08-02T04:59:07.676Z,5.93
2022-08-02T05:01:35.900Z,6.07
2022-08-02T05:04:04.535Z,5.37
2022-08-02T05:06:32.503Z,6.03
2022-08-02T05:08:59.705Z,6.07
2022-08-02T05:11:30.021Z,7.07
2022-08-02T05:14:04.785Z,6.20
2022-08-02T05:16:32.355Z,5.40
2022-08-02T05:19:03.180Z,6.20
2022-08-02T05:21:32.020Z,12.53
2022-08-02T05:23:59.313Z,5.73
2022-08-02T05:26:26.169Z,5.57
2022-08-02T05:28:53.345Z,7.27
2022-08-02T05:31:20.756Z,6.80
2022-08-02T05:33:47.485Z,6.90
2022-08-02T05:36:14.985Z,6.33
2022-08-02T05:38:42.697Z,5.60
2022-08-02T05:41:19.172Z,5.40
2022-08-02T05:43:51.200Z,7.43
2022-08-02T05:46:18.012Z,6.00
2022-08-02T05:48:45.674Z,7.17
2022-08-02T05:51:20.313Z,5.10
2022-08-02T05:53:55.396Z,6.50
2022-08-02T05:56:34.316Z,6.20
2022-08-02T05:59:05.152Z,6.07
2022-08-02T06:01:38.632Z,5.57
2022-08-02T06:04:08.548Z,5.97
2022-08-02T06:06:37.709Z,6.97
2022-08-02T06:09:10.364Z,5.13
2022-08-02T06:11:43.183Z,4.60
2022-08-02T06:14:32.349Z,4.40
2022-08-02T06:17:00.971Z,5.90
2022-08-02T06:19:31.588Z,5.30
2022-08-02T06:22:31.472Z,5.73
2022-08-02T06:25:02.898Z,6.50
2022-08-02T06:27:30.973Z,4.40
2022-08-02T06:29:58.421Z,7.20
2022-08-02T06:32:27.575Z,8.50
2022-08-02T06:34:54.672Z,6.10
2022-08-02T06:37:31.544Z,6.50
2022-08-02T06:40:14.361Z,4.70
2022-08-02T06:42:50.290Z,4.57
2022-08-02T06:45:17.720Z,4.30
2022-08-02T06:47:44.892Z,5.03
2022-08-02T06:50:12.055Z,7.03
2022-08-02T06:52:39.073Z,5.10
2022-08-02T06:55:06.942Z,4.43
2022-08-02T06:57:34.450Z,4.30
2022-08-02T07:00:02.705Z,7.73
2022-08-02T07:02:31.908Z,4.60
2022-08-02T07:04:59.501Z,4.90
2022-08-02T07:07:26.967Z,5.43
2022-08-02T07:09:56.815Z,4.57
2022-08-02T07:12:31.359Z,6.07
2022-08-02T07:14:59.835Z,4.43
2022-08-02T07:17:27.623Z,3.77
2022-08-02T07:19:55.879Z,3.53
2022-08-02T07:22:26.336Z,5.80
2022-08-02T07:24:56.066Z,4.40
2022-08-02T07:27:23.068Z,3.60
2022-08-02T07:29:50.271Z,3.67
2022-08-02T07:32:18.672Z,4.10
2022-08-02T07:34:51.305Z,18.13
2022-08-02T07:37:53.051Z,2.77
2022-08-02T07:40:15.147Z,3.33
2022-08-02T07:42:47.813Z,3.57
2022-08-02T07:45:15.249Z,3.07
2022-08-02T07:47:44.362Z,4.00
2022-08-02T07:50:13.269Z,2.17
2022-08-02T07:52:41.527Z,2.57
2022-08-02T07:55:09.986Z,2.80
2022-08-02T07:57:38.145Z,2.50
2022-08-02T08:00:09.651Z,2.30
2022-08-02T08:02:37.056Z,4.13
2022-08-02T08:05:04.542Z,2.30
2022-08-02T08:07:31.286Z,1.93
2022-08-02T08:09:59.487Z,2.83
2022-08-02T08:12:26.411Z,2.50
2022-08-02T08:14:53.761Z,2.33
2022-08-02T08:17:20.685Z,2.57
2022-08-02T08:19:52.152Z,3.47
2022-08-02T08:22:21.154Z,2.30
2022-08-02T08:24:49.244Z,3.07
2022-08-02T08:27:17.952Z,6.27
2022-08-02T08:29:45.564Z,2.63
2022-08-02T08:32:18.244Z,2.27
2022-08-02T08:34:46.550Z,2.83
2022-08-02T08:37:16.953Z,2.37
2022-08-02T08:39:56.926Z,2.43
2022-08-02T08:42:26.491Z,2.23
2022-08-02T08:44:54.609Z,2.07
2022-08-02T08:47:23.933Z,2.20
2022-08-02T08:49:54.945Z,2.27
2022-08-02T08:52:26.020Z,3.00
2022-08-02T08:54:54.573Z,2.40
2022-08-02T08:57:23.874Z,2.40
2022-08-02T08:59:51.219Z,1.90
2022-08-02T09:02:21.589Z,2.10
2022-08-02T09:04:54.925Z,1.67
2022-08-02T09:07:22.974Z,1.43
2022-08-02T09:09:49.906Z,1.67
2022-08-02T09:12:17.940Z,3.90
2022-08-02T09:14:49.965Z,1.57
2022-08-02T09:17:21.564Z,1.70
2022-08-02T09:20:07.538Z,2.50
2022-08-02T09:22:34.777Z,1.50
2022-08-02T09:25:01.983Z,2.40
2022-08-02T09:27:36.256Z,1.17
2022-08-02T09:30:13.754Z,1.40
2022-08-02T09:32:46.748Z,1.73
2022-08-02T09:35:15.506Z,2.10
2022-08-02T09:37:45.712Z,1.37
2022-08-02T09:40:23.134Z,1.27
2022-08-02T09:42:59.420Z,1.77
2022-08-02T09:45:36.719Z,1.63
2022-08-02T09:48:12.822Z,3.63
2022-08-02T09:50:41.721Z,2.10
2022-08-02T09:53:14.074Z,1.83
2022-08-02T09:55:42.286Z,1.60
2022-08-02T09:58:21.449Z,1.50
2022-08-02T10:01:01.806Z,1.40
2022-08-02T10:03:34.914Z,1.60
2022-08-02T10:06:03.345Z,1.47
2022-08-02T10:08:33.005Z,2.17
2022-08-02T10:11:01.476Z,1.87
2022-08-02T10:13:30.745Z,1.70
2022-08-02T10:15:57.892Z,2.63
2022-08-02T10:18:38.313Z,2.40
2022-08-02T10:21:14.437Z,2.07
2022-08-02T10:23:43.638Z,1.80
2022-08-02T10:26:14.732Z,2.20
2022-08-02T10:28:42.910Z,1.90
2022-08-02T10:31:10.924Z,1.83
2022-08-02T10:33:39.024Z,1.53
2022-08-02T10:36:09.713Z,1.43
2022-08-02T10:38:36.947Z,1.50
2022-08-02T10:41:04.075Z,2.20
2022-08-02T10:43:36.877Z,1.90
2022-08-02T10:46:22.880Z,1.80
2022-08-02T10:52:00.672Z,1.73
2022-08-02T10:54:32.135Z,2.13
2022-08-02T10:57:01.237Z,2.53
2022-08-02T10:59:33.698Z,1.80
2022-08-02T11:02:06.945Z,1.50
2022-08-02T11:04:42.904Z,2.17
2022-08-02T11:07:14.299Z,1.93
2022-08-02T11:09:42.851Z,2.00
2022-08-02T11:12:13.553Z,2.17
2022-08-02T11:14:46.934Z,3.60
2022-08-02T11:17:18.120Z,7.70
2022-08-02T11:20:13.385Z,2.90
2022-08-02T11:22:40.919Z,1.97
2022-08-02T11:25:22.675Z,2.13
2022-08-02T11:27:53.665Z,2.13
2022-08-02T11:30:26.674Z,1.77
2022-08-02T11:33:00.667Z,1.90
2022-08-02T11:35:39.317Z,1.63
2022-08-02T11:38:21.132Z,1.80
2022-08-02T11:40:48.993Z,2.60
2022-08-02T11:43:17.597Z,2.80
2022-08-02T11:45:44.899Z,2.60
2022-08-02T11:48:12.267Z,2.00
2022-08-02T11:50:41.855Z,1.90
2022-08-02T11:53:17.725Z,17.03
2022-08-02T11:55:45.980Z,1.77
2022-08-02T11:58:15.119Z,2.17
2022-08-02T12:00:47.030Z,2.00
2022-08-02T12:03:19.542Z,1.40
2022-08-02T12:06:05.454Z,1.60
2022-08-02T12:08:36.688Z,5.00
2022-08-02T12:11:04.480Z,2.10
2022-08-02T12:13:44.865Z,3.10
2022-08-02T12:16:43.526Z,2.33
2022-08-02T12:19:20.555Z,2.47
2022-08-02T12:21:47.447Z,2.43
2022-08-02T12:24:14.378Z,3.07
2022-08-02T12:26:46.620Z,3.10
2022-08-02T12:29:15.585Z,1.53
2022-08-02T12:32:02.831Z,2.00
2022-08-02T12:34:32.333Z,1.80
2022-08-02T12:37:06.621Z,1.60
2022-08-02T12:39:34.880Z,2.30
2022-08-02T12:42:02.140Z,6.37
2022-08-02T12:44:29.508Z,1.60
2022-08-02T12:47:05.675Z,2.90
2022-08-02T12:49:33.592Z,3.50
2022-08-02T12:52:03.557Z,1.80
2022-08-02T12:54:40.622Z,1.47
2022-08-02T12:57:15.383Z,2.27
2022-08-02T12:59:44.639Z,1.70
2022-08-02T13:02:13.490Z,7.30
2022-08-02T13:04:42.155Z,1.50
2022-08-02T13:07:17.650Z,1.60
2022-08-02T13:09:48.485Z,1.63
2022-08-02T13:12:16.401Z,1.77
2022-08-02T13:14:43.426Z,4.23
2022-08-02T13:17:11.696Z,1.83
2022-08-02T13:19:39.185Z,1.53
2022-08-02T13:22:06.233Z,1.60
2022-08-02T13:24:41.230Z,1.70
2022-08-02T13:27:23.473Z,1.70
2022-08-02T13:29:51.336Z,3.33
2022-08-02T13:32:18.790Z,2.30
2022-08-02T13:34:46.883Z,1.10
2022-08-02T13:37:13.996Z,1.60
2022-08-02T13:39:40.761Z,1.70
2022-08-02T13:42:08.173Z,2.10
2022-08-02T13:44:46.263Z,1.70
2022-08-02T13:47:36.459Z,2.70
2022-08-02T13:50:04.451Z,1.97
2022-08-02T13:52:34.040Z,2.70
2022-08-02T13:55:04.278Z,1.90
2022-08-02T13:57:39.554Z,1.70
2022-08-02T14:00:09.063Z,2.47
2022-08-02T14:02:40.219Z,1.80
2022-08-02T14:05:07.620Z,2.80
2022-08-02T14:07:34.752Z,1.90
2022-08-02T14:10:01.595Z,1.90
2022-08-02T14:12:28.307Z,2.07
2022-08-02T14:14:55.026Z,2.30
2022-08-02T14:17:21.792Z,2.93
2022-08-02T14:19:48.924Z,2.17
2022-08-02T14:22:15.672Z,1.77
2022-08-02T14:24:45.321Z,2.23
2022-08-02T14:27:21.376Z,2.53
2022-08-02T14:29:51.778Z,1.97
2022-08-02T14:32:18.621Z,2.57
2022-08-02T14:34:45.398Z,7.97
2022-08-02T14:37:12.600Z,2.30
2022-08-02T14:39:43.400Z,1.90
2022-08-02T14:42:26.747Z,2.27
2022-08-02T14:44:56.142Z,2.23
2022-08-02T14:47:22.919Z,1.80
2022-08-02T14:49:51.142Z,2.00
2022-08-02T14:52:18.789Z,2.27
2022-08-02T14:54:46.756Z,2.47
2022-08-02T14:57:13.740Z,3.30
2022-08-02T14:59:42.585Z,2.23
2022-08-02T15:02:11.849Z,4.50
2022-08-02T15:04:43.036Z,2.23
2022-08-02T15:07:10.751Z,1.90
2022-08-02T15:09:41.154Z,2.00
2022-08-02T15:12:09.636Z,2.13
2022-08-02T15:14:37.990Z,2.37
2022-08-02T15:17:05.587Z,2.57
2022-08-02T15:19:56.445Z,2.60
2022-08-02T15:22:24.042Z,2.07
2022-08-02T15:24:50.851Z,1.73
2022-08-02T15:27:17.767Z,2.07
2022-08-02T15:29:47.946Z,2.60
2022-08-02T15:32:19.918Z,2.30
2022-08-02T15:34:51.466Z,1.77
2022-08-02T15:37:19.551Z,1.70
2022-08-02T15:39:46.575Z,2.10
2022-08-02T15:42:14.282Z,2.23
2022-08-02T15:44:41.640Z,4.83
2022-08-02T15:47:11.518Z,1.80
2022-08-02T15:49:41.605Z,2.50
2022-08-02T15:52:08.949Z,4.43
2022-08-02T15:54:36.023Z,2.17
2022-08-02T15:57:02.765Z,2.30
2022-08-02T15:59:29.534Z,2.23
2022-08-02T16:01:56.339Z,2.53
2022-08-02T16:04:23.472Z,2.00
2022-08-02T16:06:50.296Z,2.53
2022-08-02T16:09:17.495Z,2.03
2022-08-02T16:11:44.261Z,2.03
2022-08-02T16:14:11.316Z,2.13
2022-08-02T16:16:40.284Z,1.57
2022-08-02T16:19:47.211Z,1.80
2022-08-02T16:21:56.618Z,3.00
2022-08-02T16:24:23.612Z,3.50
2022-08-02T16:26:50.786Z,2.90
2022-08-02T16:29:19.604Z,1.80
2022-08-02T16:31:51.411Z,2.27
2022-08-02T16:34:25.539Z,2.30
2022-08-02T16:37:00.512Z,3.90
2022-08-02T16:39:29.582Z,5.10
2022-08-02T16:41:58.342Z,2.70
2022-08-02T16:44:26.839Z,2.37
2022-08-02T16:47:00.453Z,2.13
2022-08-02T16:50:05.744Z,2.30
2022-08-02T16:52:19.188Z,2.20
2022-08-02T16:54:49.589Z,2.03
2022-08-02T16:57:19.566Z,3.50
2022-08-02T16:59:57.358Z,2.00
2022-08-02T17:02:26.080Z,2.10
2022-08-02T17:04:52.994Z,2.23
2022-08-02T17:08:07.974Z,2.40
2022-08-02T17:10:09.243Z,2.33
2022-08-02T17:12:37.136Z,2.43
2022-08-02T17:16:08.694Z,2.80
2022-08-02T17:17:55.133Z,2.47
2022-08-02T17:20:24.219Z,1.67
2022-08-02T17:22:54.536Z,2.53
2022-08-02T17:25:22.700Z,1.90
2022-08-02T17:27:55.589Z,2.37
2022-08-02T17:30:26.474Z,1.73
2022-08-02T17:32:54.150Z,2.27
2022-08-02T17:35:43.491Z,2.37
2022-08-02T17:38:17.783Z,3.83
2022-08-02T17:40:46.468Z,2.00
2022-08-02T17:43:16.710Z,2.90
2022-08-02T17:46:00.182Z,2.27
2022-08-02T17:48:36.994Z,1.97
2022-08-02T17:51:04.340Z,7.73
2022-08-02T17:53:36.395Z,2.20
2022-08-02T17:56:05.351Z,3.10
2022-08-02T17:58:35.237Z,2.40
2022-08-02T18:01:23.703Z,1.90
2022-08-02T18:04:00.253Z,2.53
2022-08-02T18:06:28.798Z,2.63
2022-08-02T18:08:59.424Z,2.03
2022-08-02T18:11:53.142Z,3.90
2022-08-02T18:14:18.553Z,2.63
2022-08-02T18:16:48.941Z,2.37
2022-08-02T18:19:17.463Z,2.93
2022-08-02T18:21:45.691Z,5.63
2022-08-02T18:24:13.137Z,2.20
2022-08-02T18:26:43.546Z,5.60
2022-08-02T18:29:10.958Z,1.77
2022-08-02T18:31:40.158Z,4.00
2022-08-02T18:34:19.410Z,3.07
2022-08-02T18:36:51.458Z,2.00
2022-08-02T18:39:18.296Z,3.03
2022-08-02T18:41:48.048Z,6.07
2022-08-02T18:44:18.887Z,2.27
2022-08-02T18:46:46.524Z,3.83
2022-08-02T18:49:16.589Z,2.57
2022-08-02T18:51:44.003Z,3.23
2022-08-02T18:54:11.458Z,2.30
2022-08-02T18:56:39.162Z,2.80
2022-08-02T18:59:07.504Z,2.63
2022-08-02T19:01:39.490Z,2.27
2022-08-02T19:04:27.051Z,2.40
2022-08-02T19:06:58.047Z,4.40
2022-08-02T19:09:34.429Z,2.77
2022-08-02T19:12:01.244Z,2.33
2022-08-02T19:14:28.890Z,2.30
2022-08-02T19:17:00.111Z,5.00
2022-08-02T19:19:29.712Z,3.10
2022-08-02T19:22:26.807Z,5.20
2022-08-02T19:27:35.133Z,2.60
2022-08-02T19:30:07.686Z,3.17
2022-08-02T19:35:30.784Z,2.43
2022-08-02T19:38:11.519Z,3.27
2022-08-02T19:40:46.105Z,2.30
2022-08-02T19:44:26.590Z,2.60
2022-08-02T19:46:05.300Z,4.30
2022-08-02T19:48:38.371Z,2.60
2022-08-02T19:51:14.362Z,2.43
2022-08-02T19:53:48.166Z,3.07
2022-08-02T19:56:25.127Z,2.60
2022-08-02T19:58:58.227Z,2.50
2022-08-02T20:01:39.439Z,2.50
2022-08-02T20:06:52.297Z,3.90
2022-08-02T20:12:12.234Z,3.00
2022-08-02T20:17:31.789Z,2.53
2022-08-02T20:19:58.627Z,2.67
2022-08-02T20:25:12.150Z,2.50
2022-08-02T20:27:51.072Z,2.40
2022-08-02T20:30:25.373Z,2.97
2022-08-02T20:33:20.951Z,2.63
2022-08-02T20:35:53.304Z,3.37
2022-08-02T20:38:25.079Z,2.37
2022-08-02T20:41:10.662Z,2.90
2022-08-02T20:43:48.917Z,3.23
2022-08-02T20:46:17.664Z,6.10
2022-08-02T20:48:45.442Z,2.77
2022-08-02T20:51:36.853Z,2.63
2022-08-02T20:54:06.358Z,3.53
2022-08-02T20:56:34.615Z,2.77
2022-08-02T20:59:04.106Z,3.00
2022-08-02T21:01:57.309Z,2.00
2022-08-02T21:04:24.483Z,3.33
2022-08-02T21:06:52.004Z,4.40
2022-08-02T21:09:18.778Z,4.50
2022-08-02T21:12:05.965Z,2.27
2022-08-02T21:14:32.689Z,2.63
2022-08-02T21:17:00.608Z,2.70
2022-08-02T21:19:30.790Z,3.20
2022-08-02T21:21:57.478Z,2.53
2022-08-02T21:24:24.793Z,3.90
2022-08-02T21:26:54.596Z,3.33
2022-08-02T21:29:22.706Z,3.60
2022-08-02T21:31:51.085Z,3.00
2022-08-02T21:34:22.586Z,2.60
2022-08-02T21:36:54.743Z,4.30
2022-08-02T21:39:21.989Z,2.97
2022-08-02T21:41:49.342Z,3.43
2022-08-02T21:44:23.337Z,4.87
2022-08-02T21:46:56.571Z,2.70
2022-08-02T21:49:40.511Z,3.27
2022-08-02T21:52:13.753Z,4.20
2022-08-02T21:54:45.490Z,3.20
2022-08-02T21:57:15.477Z,3.13
2022-08-02T21:59:47.693Z,4.30
2022-08-02T22:02:16.479Z,3.77
2022-08-02T22:04:47.686Z,3.43
2022-08-02T22:07:17.211Z,3.60
2022-08-02T22:09:45.456Z,3.63
2022-08-02T22:12:17.516Z,3.10
2022-08-02T22:14:49.464Z,3.00
2022-08-02T22:17:21.736Z,4.20
2022-08-02T22:20:09.436Z,3.73
2022-08-02T22:22:39.515Z,4.13
2022-08-02T22:25:10.124Z,3.97
2022-08-02T22:28:35.100Z,3.13
2022-08-02T22:30:35.850Z,3.73
2022-08-02T22:33:22.817Z,3.40
2022-08-02T22:36:01.140Z,3.60
2022-08-02T22:38:29.247Z,3.30
2022-08-02T22:40:56.500Z,5.30
2022-08-02T22:43:23.631Z,3.67
2022-08-02T22:45:53.050Z,3.20
2022-08-02T22:48:20.421Z,4.50
2022-08-02T22:50:47.985Z,4.13
2022-08-02T22:53:24.721Z,3.63
2022-08-02T22:56:01.852Z,3.27
2022-08-02T22:58:29.623Z,4.03
2022-08-02T22:58:47.819Z,3.03
2022-08-02T23:00:56.718Z,5.97
2022-08-02T23:03:23.418Z,4.13
2022-08-02T23:05:51.281Z,5.13
2022-08-02T23:08:18.242Z,5.67
2022-08-02T23:10:45.299Z,4.70
2022-08-02T23:13:12.610Z,3.10
2022-08-02T23:15:59.891Z,4.37
2022-08-02T23:18:46.351Z,3.80
2022-08-02T23:21:14.499Z,3.50
2022-08-02T23:24:01.739Z,4.13
2022-08-02T23:26:28.650Z,3.40
2022-08-02T23:28:55.784Z,3.47
2022-08-02T23:31:37.451Z,7.40
2022-08-02T23:34:05.894Z,3.77
2022-08-02T23:36:34.453Z,3.83
2022-08-02T23:39:01.376Z,4.53
2022-08-02T23:41:28.836Z,3.27
2022-08-02T23:44:12.356Z,3.13
2022-08-02T23:46:45.170Z,3.93
2022-08-02T23:49:12.858Z,3.13
2022-08-02T23:51:42.041Z,3.87
2022-08-02T23:54:12.022Z,3.97
2022-08-02T23:56:40.463Z,3.50
2022-08-02T23:59:07.974Z,4.23
